Terminal Aerodrome Forecast
Issued by NWS Portland, OR

Home | Current Version | Previous Version | Text Only | Print | Product List | Glossary On
Versions: 1 2 3 4 5 6 7 8 9 10 11 12 13 14 15 16 17 18 19 20 21 22 23 24 25 26 27 28 29 30 31 32 33 34 35 36 37 38 39 40 41 42 43
000
FTUS46 KPQR 111314 AAA
TAFTTD
TAF AMD
KTTD 111314Z 1113/1212 21005KT P6SM -SHRA SCT015 SCT025 BKN040
      TEMPO 1113/1117 21015G25KT 5SM SHRA BR SCT012 BKN020 BKN035
     FM112100 22006KT P6SM -SHRA SCT025 BKN040
     FM120500 21005KT P6SM -SHRA SCT020 BKN035
     FM121000 VRB03KT P6SM BKN015=

USA.gov is the U.S. government's official web portal to all federal, state and local government web resources and services.